KBDU

Boulder Municipal Airport

Boulder, Colorado, USA
METAR KBDU 151930Z AUTO 11006G15KT 10SM CLR 08/M04 A2966 RMK AO2
Observed Flight Rules
Feb-15 @ 19:30 UTC (12 minutes ago) Visual Flight Rules
Wind Visibility Clouds
110° at 6 knots
 Gusting to 15 knots
10 miles
  • Clear skies
Temperatures Readings
Current 8°C / 46°F
Dewpoint -4°C / 25°F
Humidity 43%
Altimeter 29.66" Hg
Pressure 1004.42 hPa
Elevation 1612
METAR KBDU 151930Z AUTO 11006G15KT 10SM CLR 08/M04 A2966 RMK AO2
Observed Flight Rules
Feb-15 @ 19:30 UTC
(12 minutes ago)
VFR
Wind Visibility
110° at 6 knots
 Gusting to 15 knots
10 miles
Clouds
  • Clear skies
Temperature Dewpoint
8°C / 46°F -4°C / 25°F
Humidity Altimeter Pressure
43% 29.66" Hg 1004.42 hPa